createdAt,value
2019-04-05T00:02:05.112Z,90.16
2019-04-05T00:05:12.139Z,90.74
2019-04-05T00:08:19.177Z,90.34
2019-04-05T00:11:26.078Z,90.53
2019-04-05T00:14:35.038Z,89.71
2019-04-05T00:17:43.549Z,90.16
2019-04-05T00:20:50.392Z,90.36
2019-04-05T00:23:57.279Z,89.37
2019-04-05T00:27:04.130Z,90.61
2019-04-05T00:30:11.809Z,90.49
2019-04-05T00:33:18.657Z,90.40
2019-04-05T00:36:25.559Z,90.76
2019-04-05T00:39:32.840Z,91.05
2019-04-05T00:42:40.261Z,91.78
2019-04-05T00:45:47.154Z,91.62
2019-04-05T00:48:54.051Z,91.87
2019-04-05T00:52:00.921Z,91.83
2019-04-05T00:55:08.533Z,92.10
2019-04-05T00:58:15.395Z,91.17
2019-04-05T01:01:22.296Z,91.72
2019-04-05T01:04:33.639Z,91.22
2019-04-05T01:07:40.552Z,89.96
2019-04-05T01:10:47.403Z,89.98
2019-04-05T01:13:55.244Z,90.70
2019-04-05T01:17:02.348Z,91.40
2019-04-05T01:20:11.604Z,90.17
2019-04-05T01:23:18.923Z,89.97
2019-04-05T01:26:26.828Z,89.69
2019-04-05T01:29:35.333Z,90.20
2019-04-05T01:32:42.443Z,91.03
2019-04-05T01:35:49.334Z,90.30
2019-04-05T01:38:56.224Z,90.91
2019-04-05T01:42:03.149Z,91.98
2019-04-05T01:45:11.801Z,91.00
2019-04-05T01:48:18.800Z,92.09
2019-04-05T01:51:25.698Z,91.94
2019-04-05T01:54:36.016Z,91.94
2019-04-05T01:57:42.893Z,91.87
2019-04-05T02:00:49.751Z,92.83
2019-04-05T02:03:56.822Z,91.77
2019-04-05T02:07:03.680Z,93.04
2019-04-05T02:10:11.096Z,91.99
2019-04-05T02:13:18.082Z,90.25
2019-04-05T02:16:25.094Z,91.23
2019-04-05T02:19:37.266Z,91.12
2019-04-05T02:22:44.272Z,91.92
2019-04-05T02:25:51.320Z,92.76
2019-04-05T02:28:58.317Z,91.72
2019-04-05T02:32:08.253Z,92.41
2019-04-05T02:35:15.130Z,92.05
2019-04-05T02:38:22.025Z,92.35
2019-04-05T02:41:30.950Z,92.23
2019-04-05T02:44:39.403Z,92.46
2019-04-05T02:47:53.553Z,91.96
2019-04-05T02:51:03.444Z,91.86
2019-04-05T02:54:11.144Z,92.20
2019-04-05T02:57:18.510Z,92.46
2019-04-05T03:00:25.589Z,92.43
2019-04-05T03:03:33.047Z,91.55
2019-04-05T03:06:40.708Z,93.19
2019-04-05T03:09:47.920Z,93.98
2019-04-05T03:12:54.797Z,92.79
2019-04-05T03:16:05.462Z,93.39
2019-04-05T03:19:24.227Z,93.31
2019-04-05T03:22:36.691Z,93.92
2019-04-05T03:25:43.800Z,93.43
2019-04-05T03:28:54.145Z,94.45
2019-04-05T03:32:01.171Z,93.59
2019-04-05T03:35:08.266Z,93.76
2019-04-05T03:38:15.463Z,93.85
2019-04-05T03:41:23.499Z,93.52
2019-04-05T03:44:31.888Z,94.34
2019-04-05T03:47:38.750Z,93.34
2019-04-05T03:50:45.964Z,93.62
2019-04-05T03:53:52.899Z,94.49
2019-04-05T03:57:00.017Z,94.00
2019-04-05T04:00:07.685Z,94.39
2019-04-05T04:03:15.287Z,94.18
2019-04-05T04:06:22.160Z,94.74
2019-04-05T04:09:30.620Z,94.41
2019-04-05T04:12:37.795Z,95.00
2019-04-05T04:15:44.961Z,95.32
2019-04-05T04:18:52.139Z,95.57
2019-04-05T04:22:26.221Z,95.75
2019-04-05T04:25:37.939Z,95.96
2019-04-05T04:28:46.437Z,95.92
2019-04-05T04:31:53.586Z,95.60
2019-04-05T04:35:00.466Z,95.33
2019-04-05T04:38:08.724Z,94.83
2019-04-05T04:41:16.113Z,95.44
2019-04-05T04:44:23.223Z,95.25
2019-04-05T04:47:32.979Z,95.49
2019-04-05T04:50:40.246Z,95.37
2019-04-05T04:53:47.456Z,95.93
2019-04-05T04:56:54.346Z,95.68
2019-04-05T05:00:01.257Z,95.52
2019-04-05T05:03:08.838Z,94.91
2019-04-05T05:06:15.834Z,94.96
2019-04-05T05:09:23.298Z,94.58
2019-04-05T05:12:34.954Z,95.27
2019-04-05T05:15:41.894Z,95.84
2019-04-05T05:18:49.008Z,95.47
2019-04-05T05:21:55.883Z,96.73
2019-04-05T05:25:02.975Z,96.55
2019-04-05T05:28:11.100Z,97.23
2019-04-05T05:31:18.364Z,96.47
2019-04-05T05:34:25.274Z,95.76
2019-04-05T05:37:34.285Z,95.50
2019-04-05T05:40:43.748Z,95.20
2019-04-05T05:43:50.935Z,96.18
2019-04-05T05:46:57.809Z,96.16
2019-04-05T05:50:05.118Z,93.73
2019-04-05T05:53:12.040Z,94.36
2019-04-05T05:56:18.926Z,94.84
2019-04-05T05:59:27.743Z,94.56
2019-04-05T06:02:38.376Z,93.56
2019-04-05T06:05:43.243Z,90.85
2019-04-05T06:08:50.141Z,89.56
2019-04-05T06:11:58.078Z,91.97
2019-04-05T06:15:05.990Z,94.18
2019-04-05T06:18:12.951Z,96.20
2019-04-05T06:21:21.038Z,94.26
2019-04-05T06:24:28.000Z,95.41
2019-04-05T06:27:36.822Z,95.01
2019-04-05T06:30:44.814Z,93.89
2019-04-05T06:33:51.722Z,92.57
2019-04-05T06:36:58.856Z,93.76
2019-04-05T06:40:06.325Z,94.38
2019-04-05T06:43:13.192Z,94.17
2019-04-05T06:46:20.074Z,93.80
2019-04-05T06:49:27.560Z,92.42
2019-04-05T06:52:36.880Z,92.21
2019-04-05T06:55:43.732Z,91.54
2019-04-05T06:58:52.138Z,92.51
2019-04-05T07:01:58.990Z,91.44
2019-04-05T07:05:06.462Z,92.21
2019-04-05T07:08:13.318Z,91.44
2019-04-05T07:11:20.218Z,90.88
2019-04-05T07:14:29.802Z,92.14
2019-04-05T07:17:36.992Z,91.28
2019-04-05T07:20:43.863Z,90.27
2019-04-05T07:23:50.770Z,91.93
2019-04-05T07:26:57.695Z,90.47
2019-04-05T07:30:05.064Z,90.45
2019-04-05T07:33:12.321Z,90.49
2019-04-05T07:36:19.278Z,90.55
2019-04-05T07:39:26.423Z,91.13
2019-04-05T07:42:33.358Z,90.22
2019-04-05T07:45:40.237Z,91.37
2019-04-05T07:48:47.149Z,89.36
2019-04-05T07:51:54.012Z,88.28
2019-04-05T07:55:00.829Z,89.88
2019-04-05T07:58:08.789Z,89.75
2019-04-05T08:01:16.185Z,90.15
2019-04-05T08:04:23.047Z,90.17
2019-04-05T08:07:37.422Z,90.87
2019-04-05T08:10:46.016Z,90.02
2019-04-05T08:13:55.575Z,90.06
2019-04-05T08:17:02.456Z,89.85
2019-04-05T08:20:09.571Z,89.62
2019-04-05T08:23:16.431Z,90.07
2019-04-05T08:26:23.524Z,90.09
2019-04-05T08:29:30.383Z,89.96
2019-04-05T08:32:38.461Z,91.27
2019-04-05T08:35:46.520Z,91.03
2019-04-05T08:38:53.432Z,90.37
2019-04-05T08:42:00.304Z,89.53
2019-04-05T08:45:08.029Z,90.10
2019-04-05T08:48:14.894Z,89.40
2019-04-05T08:51:22.273Z,88.25
2019-04-05T08:54:33.221Z,87.76
2019-04-05T08:57:39.420Z,87.32
2019-04-05T09:00:46.302Z,87.18
2019-04-05T09:03:53.300Z,87.35
2019-04-05T09:07:00.141Z,87.73
2019-04-05T09:10:07.227Z,87.36
2019-04-05T09:13:15.159Z,88.04
2019-04-05T09:16:22.160Z,86.82
2019-04-05T09:19:29.212Z,87.26
2019-04-05T09:22:36.122Z,87.11
2019-04-05T09:25:44.349Z,88.22
2019-04-05T09:28:51.507Z,87.01
2019-04-05T09:31:58.376Z,87.51
2019-04-05T09:35:05.537Z,87.11
2019-04-05T09:38:13.621Z,86.81
2019-04-05T09:41:20.604Z,86.44
2019-04-05T09:44:28.632Z,84.42
2019-04-05T09:47:46.401Z,85.67
2019-04-05T09:50:54.787Z,85.48
2019-04-05T09:54:01.866Z,85.74
2019-04-05T09:57:08.756Z,85.58
2019-04-05T10:00:19.882Z,85.69
2019-04-05T10:03:27.447Z,84.26
2019-04-05T10:06:34.350Z,84.63
2019-04-05T10:09:44.995Z,83.41
2019-04-05T10:12:51.909Z,83.44
2019-04-05T10:15:59.016Z,83.08
2019-04-05T10:19:06.091Z,82.31
2019-04-05T10:22:12.952Z,82.85
2019-04-05T10:25:19.892Z,83.92
2019-04-05T10:28:26.766Z,83.19
2019-04-05T10:31:33.674Z,82.85
2019-04-05T10:34:41.965Z,82.74
2019-04-05T10:37:48.903Z,81.69
2019-04-05T10:40:57.888Z,81.75
2019-04-05T10:44:06.547Z,81.84
2019-04-05T10:47:13.617Z,81.38
2019-04-05T10:50:22.259Z,81.16
2019-04-05T10:53:29.168Z,80.70
2019-04-05T10:56:36.087Z,81.45
2019-04-05T10:59:46.615Z,80.62
2019-04-05T11:02:54.608Z,79.86
2019-04-05T11:06:01.483Z,80.31
2019-04-05T11:09:09.927Z,79.96
2019-04-05T11:12:16.874Z,79.23
2019-04-05T11:15:23.906Z,79.50
2019-04-05T11:18:32.828Z,79.99
2019-04-05T11:21:40.909Z,79.44
2019-04-05T11:24:47.778Z,79.34
2019-04-05T11:27:54.810Z,78.93
2019-04-05T11:31:01.678Z,80.14
2019-04-05T11:34:08.712Z,80.16
2019-04-05T11:37:16.899Z,80.56
2019-04-05T11:40:24.377Z,80.30
2019-04-05T11:43:34.180Z,79.99
2019-04-05T11:46:41.082Z,80.09
2019-04-05T11:49:50.124Z,79.60
2019-04-05T11:52:57.004Z,78.88
2019-04-05T11:56:14.435Z,78.78
2019-04-05T11:59:16.144Z,76.51
2019-04-05T12:02:27.291Z,76.47
2019-04-05T12:05:34.449Z,76.42
2019-04-05T12:08:42.219Z,75.65
2019-04-05T12:11:56.906Z,76.04
2019-04-05T12:15:06.201Z,76.79
2019-04-05T12:18:12.537Z,77.19
2019-04-05T12:21:21.064Z,77.11
2019-04-05T12:24:28.202Z,76.54
2019-04-05T12:27:35.094Z,76.28
2019-04-05T12:30:45.924Z,75.59
2019-04-05T12:33:52.553Z,77.17
2019-04-05T12:36:59.511Z,76.90
2019-04-05T12:40:10.250Z,77.42
2019-04-05T12:43:16.916Z,77.27
2019-04-05T12:46:24.149Z,77.48
2019-04-05T12:49:31.053Z,78.15
2019-04-05T12:52:38.146Z,76.67
2019-04-05T12:55:45.083Z,77.52
2019-04-05T12:58:53.684Z,77.11
2019-04-05T13:02:00.617Z,76.95
2019-04-05T13:05:08.297Z,77.29
2019-04-05T13:08:15.200Z,73.77
2019-04-05T13:11:25.792Z,73.01
2019-04-05T13:14:30.690Z,70.75
2019-04-05T13:17:38.272Z,71.87
2019-04-05T13:20:46.376Z,71.67
2019-04-05T13:23:53.239Z,71.17
2019-04-05T13:27:01.911Z,71.72
2019-04-05T13:30:09.041Z,73.92
2019-04-05T13:33:15.950Z,72.62
2019-04-05T13:36:23.438Z,71.01
2019-04-05T13:39:30.397Z,69.05
2019-04-05T13:42:37.360Z,71.23
2019-04-05T13:45:46.357Z,71.16
2019-04-05T13:48:53.578Z,71.55
2019-04-05T13:52:00.490Z,73.87
2019-04-05T13:55:10.437Z,73.80
2019-04-05T13:58:16.600Z,73.46
2019-04-05T14:01:23.655Z,72.35
2019-04-05T14:04:30.552Z,71.80
2019-04-05T14:07:39.032Z,72.30
2019-04-05T14:10:46.047Z,71.01
2019-04-05T14:13:54.287Z,71.98
2019-04-05T14:17:01.184Z,71.06
2019-04-05T14:20:09.400Z,70.92
2019-04-05T14:23:16.336Z,71.44
2019-04-05T14:26:23.251Z,70.28
2019-04-05T14:29:33.201Z,71.42
2019-04-05T14:32:38.726Z,70.98
2019-04-05T14:35:45.621Z,72.91
2019-04-05T14:38:52.566Z,72.49
2019-04-05T14:42:09.177Z,71.50
2019-04-05T14:45:08.807Z,72.40
2019-04-05T14:48:17.040Z,73.96
2019-04-05T14:51:24.207Z,72.94
2019-04-05T14:54:31.253Z,72.91
2019-04-05T14:57:38.124Z,73.89
2019-04-05T15:00:47.261Z,72.76
2019-04-05T15:03:54.691Z,72.65
2019-04-05T15:07:01.605Z,72.62
2019-04-05T15:10:08.801Z,73.32
2019-04-05T15:13:15.805Z,72.93
2019-04-05T15:16:23.496Z,73.66
2019-04-05T15:19:30.645Z,72.86
2019-04-05T15:22:37.518Z,73.80
2019-04-05T15:25:44.413Z,76.03
2019-04-05T15:28:54.644Z,74.30
2019-04-05T15:32:02.413Z,75.61
2019-04-05T15:35:10.844Z,75.28
2019-04-05T15:38:17.743Z,75.70
2019-04-05T15:41:24.616Z,75.95
2019-04-05T15:44:31.691Z,75.60
2019-04-05T15:47:38.785Z,75.32
2019-04-05T15:50:45.709Z,75.69
2019-04-05T15:53:53.125Z,75.82
2019-04-05T15:57:03.773Z,75.70
2019-04-05T16:00:12.825Z,75.89
2019-04-05T16:03:19.954Z,75.64
2019-04-05T16:06:27.394Z,75.40
2019-04-05T16:09:34.288Z,76.50
2019-04-05T16:12:41.174Z,76.61
2019-04-05T16:15:48.131Z,76.21
2019-04-05T16:18:55.001Z,76.90
2019-04-05T16:22:02.143Z,76.91
2019-04-05T16:25:10.828Z,77.04
2019-04-05T16:28:17.755Z,77.41
2019-04-05T16:31:24.699Z,76.54
2019-04-05T16:34:31.682Z,76.86
2019-04-05T16:37:38.666Z,77.55
2019-04-05T16:40:46.652Z,76.11
2019-04-05T16:43:53.535Z,77.11
2019-04-05T16:47:00.614Z,77.74
2019-04-05T16:50:08.546Z,78.05
2019-04-05T16:53:15.469Z,77.05
2019-04-05T16:56:28.945Z,76.95
2019-04-05T16:59:38.792Z,77.08
2019-04-05T17:02:45.959Z,77.27
2019-04-05T17:05:52.915Z,77.99
2019-04-05T17:09:01.819Z,77.64
2019-04-05T17:12:10.512Z,78.47
2019-04-05T17:15:18.039Z,78.46
2019-04-05T17:18:25.013Z,78.67
2019-04-05T17:21:31.895Z,77.61
2019-04-05T17:24:38.864Z,79.03
2019-04-05T17:27:45.755Z,78.56
2019-04-05T17:30:52.810Z,80.05
2019-04-05T17:33:59.809Z,80.89
2019-04-05T17:37:07.803Z,80.26
2019-04-05T17:40:14.832Z,79.49
2019-04-05T17:43:21.806Z,80.23
2019-04-05T17:46:28.719Z,82.95
2019-04-05T17:49:35.633Z,81.24
2019-04-05T17:52:42.556Z,79.95
2019-04-05T17:55:49.541Z,80.54
2019-04-05T17:58:56.842Z,84.95
2019-04-05T18:02:03.951Z,81.51
2019-04-05T18:05:10.866Z,81.33
2019-04-05T18:08:17.872Z,82.31
2019-04-05T18:11:24.756Z,82.27
2019-04-05T18:14:31.663Z,83.40
2019-04-05T18:17:38.746Z,82.77
2019-04-05T18:20:45.759Z,84.39
2019-04-05T18:23:52.902Z,84.01
2019-04-05T18:26:59.931Z,84.83
2019-04-05T18:30:07.616Z,85.36
2019-04-05T18:33:14.584Z,87.01
2019-04-05T18:36:21.582Z,88.24
2019-04-05T18:39:28.535Z,87.36
2019-04-05T18:42:35.437Z,87.37
2019-04-05T18:45:42.489Z,86.89
2019-04-05T18:48:49.472Z,87.50
2019-04-05T18:51:56.381Z,85.55
2019-04-05T18:55:03.323Z,84.88
2019-04-05T18:58:10.265Z,86.16
2019-04-05T19:01:17.371Z,87.48
2019-04-05T19:04:24.354Z,87.72
2019-04-05T19:07:31.271Z,87.32
2019-04-05T19:10:39.097Z,90.36
2019-04-05T19:14:00.546Z,86.95
2019-04-05T19:16:59.229Z,88.37
2019-04-05T19:20:06.786Z,90.99
2019-04-05T19:23:13.684Z,88.06
2019-04-05T19:26:20.544Z,87.25
2019-04-05T19:29:27.631Z,86.36
2019-04-05T19:51:30.877Z,93.60
2019-04-05T19:54:37.977Z,90.83
2019-04-05T19:57:46.592Z,89.78
2019-04-05T20:00:55.253Z,89.31
2019-04-05T20:04:02.653Z,88.09
2019-04-05T20:07:09.646Z,87.66
2019-04-05T20:10:16.605Z,88.19
2019-04-05T20:13:26.195Z,89.05
2019-04-05T20:16:32.228Z,87.90
2019-04-05T20:19:39.610Z,90.27
2019-04-05T20:22:49.273Z,90.45
2019-04-05T20:25:56.452Z,91.91
2019-04-05T20:29:09.633Z,89.67
2019-04-05T20:32:16.533Z,88.14
2019-04-05T20:35:23.406Z,89.26
2019-04-05T20:38:30.763Z,92.84
2019-04-05T20:41:39.421Z,90.47
2019-04-05T20:44:46.306Z,90.54
2019-04-05T20:47:53.297Z,93.88
2019-04-05T20:51:00.295Z,92.94
2019-04-05T20:54:07.257Z,94.85
2019-04-05T20:57:15.435Z,94.20
2019-04-05T21:00:23.871Z,92.63
2019-04-05T21:03:30.745Z,91.97
2019-04-05T21:06:40.644Z,92.79
2019-04-05T21:09:49.038Z,90.71
2019-04-05T21:12:56.091Z,90.84
2019-04-05T21:16:02.973Z,90.75
2019-04-05T21:19:09.826Z,91.45
2019-04-05T21:22:16.813Z,92.90
2019-04-05T21:25:23.694Z,90.41
2019-04-05T21:28:30.582Z,90.72
2019-04-05T21:31:38.775Z,90.76
2019-04-05T21:34:46.060Z,90.08
2019-04-05T21:37:52.971Z,91.94
2019-04-05T21:40:59.971Z,90.83
2019-04-05T21:44:08.700Z,90.80
2019-04-05T21:47:15.588Z,91.11
2019-04-05T21:50:22.463Z,93.92
2019-04-05T21:53:29.346Z,91.71
2019-04-05T21:56:38.360Z,94.06
2019-04-05T21:59:48.379Z,93.44
2019-04-05T22:02:55.320Z,92.00
2019-04-05T22:06:03.362Z,91.80
2019-04-05T22:09:11.000Z,90.78
2019-04-05T22:12:17.955Z,92.88
2019-04-05T22:15:24.823Z,91.22
2019-04-05T22:18:31.767Z,90.97
2019-04-05T22:21:40.284Z,91.11
2019-04-05T22:24:58.568Z,93.84
2019-04-05T22:27:56.119Z,92.34
2019-04-05T22:31:03.071Z,96.90
2019-04-05T22:34:09.961Z,94.38
2019-04-05T22:37:16.852Z,96.62
2019-04-05T22:40:23.688Z,92.79
2019-04-05T22:43:30.563Z,96.42
2019-04-05T22:46:37.597Z,94.65
2019-04-05T22:49:44.472Z,93.20
2019-04-05T22:52:51.319Z,94.54
2019-04-05T22:55:58.906Z,90.54
2019-04-05T22:59:05.756Z,93.51
2019-04-05T23:02:12.685Z,92.02
2019-04-05T23:05:19.546Z,93.27
2019-04-05T23:08:26.432Z,93.63
2019-04-05T23:11:33.646Z,96.45
2019-04-05T23:14:40.569Z,92.78
2019-04-05T23:17:47.626Z,92.12
2019-04-05T23:20:54.516Z,92.79
2019-04-05T23:24:01.401Z,94.58
2019-04-05T23:27:08.389Z,93.11
2019-04-05T23:30:17.544Z,92.45
2019-04-05T23:33:24.445Z,91.32
2019-04-05T23:36:31.301Z,93.78
2019-04-05T23:39:38.398Z,94.74
2019-04-05T23:42:48.164Z,92.56
2019-04-05T23:45:58.253Z,93.79
2019-04-05T23:49:05.092Z,93.46
2019-04-05T23:52:11.984Z,98.65
2019-04-05T23:55:18.830Z,98.70
2019-04-05T23:58:25.715Z,92.47
